Time;durP1;ratioP1;P1;durP2;ratioP2;P2;SDS_P1;SDS_P2;PMS_P1;PMS_P2;Temp;Humidity;BMP_temperature;BMP_pressure;BME280_temperature;BME280_humidity;BME280_pressure;Samples;Min_cycle;Max_cycle;Signal;HPM_P1;HPM_P2
2022/07/29 00:02:46;;;;;;;;;;;18.70;99.90;;;;;;8430167;28;19920;-69
2022/07/29 00:06:47;;;;;;;;;;;18.70;99.90;;;;;;8427872;28;20279;-69
2022/07/29 00:10:49;;;;;;;;;;;18.70;99.90;;;;;;8431414;28;19920;-68
2022/07/29 00:14:51;;;;;;;;;;;18.60;99.90;;;;;;8429217;28;20367;-69
2022/07/29 00:18:53;;;;;;;;;;;18.60;99.90;;;;;;8429801;28;20349;-68
2022/07/29 00:22:54;;;;;;;;;;;18.60;99.90;;;;;;8429837;28;20329;-69
2022/07/29 00:42:07;;;;;;;;;;;18.40;99.90;;;;;;8427515;28;20005;-69
2022/07/29 00:56:15;;;;;;;;;;;18.30;99.90;;;;;;8429245;28;20016;-68
2022/07/29 01:00:20;;;;;;;;;;;18.20;99.90;;;;;;8424801;28;20359;-69
2022/07/29 01:04:22;;;;;;;;;;;18.20;99.90;;;;;;8427782;28;19924;-69
2022/07/29 01:08:23;;;;;;;;;;;18.20;99.90;;;;;;8440838;28;20245;-68
2022/07/29 01:12:26;;;;;;;;;;;18.10;99.90;;;;;;8428555;28;19927;-69
2022/07/29 01:16:30;;;;;;;;;;;18.10;99.90;;;;;;8426620;28;19942;-69
2022/07/29 01:20:32;;;;;;;;;;;18.10;99.90;;;;;;8428274;28;19931;-68
2022/07/29 01:24:45;;;;;;;;;;;18.00;99.90;;;;;;8425696;28;19931;-68
2022/07/29 01:28:51;;;;;;;;;;;18.00;99.90;;;;;;8427094;28;19920;-69
2022/07/29 01:32:56;;;;;;;;;;;18.00;99.90;;;;;;8427706;28;19920;-68
2022/07/29 01:37:00;;;;;;;;;;;18.00;99.90;;;;;;8418022;28;19920;-68
2022/07/29 01:41:04;;;;;;;;;;;18.00;99.90;;;;;;8427247;28;19954;-68
2022/07/29 01:45:18;;;;;;;;;;;17.90;99.90;;;;;;8427031;28;19931;-68
2022/07/29 01:49:21;;;;;;;;;;;17.90;99.90;;;;;;8427602;28;19920;-68
2022/07/29 01:53:26;;;;;;;;;;;17.90;99.90;;;;;;8427298;28;19924;-68
2022/07/29 01:57:31;;;;;;;;;;;17.90;99.90;;;;;;8424761;28;20320;-68
2022/07/29 02:01:33;;;;;;;;;;;17.80;99.90;;;;;;8428597;28;19923;-68
2022/07/29 02:05:37;;;;;;;;;;;17.80;99.90;;;;;;8424439;28;19928;-68
2022/07/29 02:09:39;;;;;;;;;;;17.80;99.90;;;;;;8427608;28;20364;-68
2022/07/29 02:13:42;;;;;;;;;;;17.80;99.90;;;;;;8426503;28;19920;-68
2022/07/29 02:17:45;;;;;;;;;;;17.80;99.90;;;;;;8427176;28;20320;-68
2022/07/29 02:21:48;;;;;;;;;;;17.80;99.90;;;;;;8427584;28;19919;-68
2022/07/29 02:25:51;;;;;;;;;;;17.80;99.90;;;;;;8419428;28;19927;-68
2022/07/29 02:29:53;;;;;;;;;;;17.80;99.90;;;;;;8425193;28;20306;-68
2022/07/29 02:33:55;;;;;;;;;;;17.80;99.90;;;;;;8426000;28;19924;-68
2022/07/29 02:42:18;;;;;;;;;;;17.80;99.90;;;;;;8426931;28;19942;-68
2022/07/29 02:46:26;;;;;;;;;;;17.70;99.90;;;;;;8426811;28;19958;-68
2022/07/29 02:50:34;;;;;;;;;;;17.70;99.90;;;;;;8419759;28;19926;-68
2022/07/29 02:54:45;;;;;;;;;;;17.70;99.90;;;;;;8426642;28;19927;-68
2022/07/29 02:58:50;;;;;;;;;;;17.60;99.90;;;;;;8426097;28;19920;-68
2022/07/29 03:02:53;;;;;;;;;;;17.60;99.90;;;;;;8426427;28;19921;-68
2022/07/29 03:06:56;;;;;;;;;;;17.60;99.90;;;;;;8425459;28;19924;-68
2022/07/29 03:10:58;;;;;;;;;;;17.60;99.90;;;;;;8433367;28;19919;-68
2022/07/29 03:15:00;;;;;;;;;;;17.60;99.90;;;;;;8431096;28;20006;-68
2022/07/29 03:19:02;;;;;;;;;;;17.50;99.90;;;;;;8432694;28;20029;-68
2022/07/29 03:23:04;;;;;;;;;;;17.50;99.90;;;;;;8431910;28;19951;-68
2022/07/29 03:27:06;;;;;;;;;;;17.50;99.90;;;;;;8430738;28;19919;-68
2022/07/29 03:31:07;;;;;;;;;;;17.50;99.90;;;;;;8430906;28;20343;-68
2022/07/29 03:35:09;;;;;;;;;;;17.40;99.90;;;;;;8429296;28;19974;-69
2022/07/29 03:39:12;;;;;;;;;;;17.40;99.90;;;;;;8415363;28;19920;-68
2022/07/29 03:43:15;;;;;;;;;;;17.40;99.90;;;;;;8430564;28;19923;-68
2022/07/29 03:47:18;;;;;;;;;;;17.40;99.90;;;;;;8432077;28;19927;-71
2022/07/29 03:51:20;;;;;;;;;;;17.40;99.90;;;;;;8430332;28;19920;-71
2022/07/29 03:55:40;;;;;;;;;;;17.30;99.90;;;;;;8430775;28;19959;-71
2022/07/29 03:59:42;;;;;;;;;;;17.30;99.90;;;;;;8430031;28;19920;-71
2022/07/29 04:03:45;;;;;;;;;;;17.30;99.90;;;;;;8428992;28;20286;-71
2022/07/29 04:07:47;;;;;;;;;;;17.30;99.90;;;;;;8430514;28;19966;-71
2022/07/29 04:11:49;;;;;;;;;;;17.20;99.90;;;;;;8431053;28;19920;-71
2022/07/29 04:16:03;;;;;;;;;;;17.20;99.90;;;;;;8429714;28;19930;-71
2022/07/29 04:20:05;;;;;;;;;;;17.20;99.90;;;;;;8433819;28;19919;-71
2022/07/29 04:24:07;;;;;;;;;;;17.20;99.90;;;;;;8428026;28;19920;-71
2022/07/29 04:28:09;;;;;;;;;;;17.20;99.90;;;;;;8430837;28;19920;-71
2022/07/29 04:32:11;;;;;;;;;;;17.10;99.90;;;;;;8430315;28;20288;-71
2022/07/29 04:36:12;;;;;;;;;;;17.10;99.90;;;;;;8419183;28;19924;-71
2022/07/29 04:40:29;;;;;;;;;;;17.10;99.90;;;;;;8417741;28;20264;-71
2022/07/29 04:44:31;;;;;;;;;;;17.10;99.90;;;;;;8428169;28;19924;-71
2022/07/29 05:03:43;;;;;;;;;;;17.10;99.90;;;;;;8427213;28;19949;-71
2022/07/29 05:07:45;;;;;;;;;;;17.10;99.90;;;;;;8428685;28;19920;-71
2022/07/29 05:11:47;;;;;;;;;;;17.10;99.90;;;;;;8428001;28;19927;-71
2022/07/29 05:15:48;;;;;;;;;;;17.10;99.90;;;;;;8426749;28;19921;-71
2022/07/29 05:19:51;;;;;;;;;;;17.20;99.90;;;;;;8425854;28;19967;-71
2022/07/29 05:23:52;;;;;;;;;;;17.20;99.90;;;;;;8427990;28;20351;-71
2022/07/29 05:32:57;;;;;;;;;;;17.20;99.90;;;;;;8426518;28;19915;-71
2022/07/29 05:36:59;;;;;;;;;;;17.30;99.90;;;;;;8414107;28;20213;-71
2022/07/29 05:41:00;;;;;;;;;;;17.30;99.90;;;;;;8426480;28;19920;-71
2022/07/29 05:45:02;;;;;;;;;;;17.30;99.90;;;;;;8427892;28;20023;-71
2022/07/29 05:49:06;;;;;;;;;;;17.30;99.90;;;;;;8421227;28;20596;-71
2022/07/29 05:53:09;;;;;;;;;;;17.40;99.90;;;;;;8385888;28;21544;-71
2022/07/29 05:57:21;;;;;;;;;;;17.40;99.90;;;;;;8386962;28;19931;-71
2022/07/29 06:01:23;;;;;;;;;;;17.50;99.90;;;;;;8386876;28;19925;-71
2022/07/29 06:05:24;;;;;;;;;;;17.50;99.90;;;;;;8417737;27;19928;-71
2022/07/29 06:09:26;;;;;;;;;;;17.60;99.90;;;;;;8385869;28;19925;-71
2022/07/29 06:13:30;;;;;;;;;;;17.60;99.90;;;;;;8418779;27;19931;-70
2022/07/29 06:17:31;;;;;;;;;;;17.60;99.90;;;;;;8384299;28;20540;-71
2022/07/29 06:21:33;;;;;;;;;;;17.70;99.90;;;;;;8387184;28;19928;-71
2022/07/29 06:25:36;;;;;;;;;;;17.80;99.90;;;;;;8388590;28;20307;-71
2022/07/29 06:29:38;;;;;;;;;;;17.90;99.90;;;;;;8388337;28;19970;-71
2022/07/29 06:33:39;;;;;;;;;;;18.00;99.90;;;;;;8385324;28;19928;-71
2022/07/29 06:37:41;;;;;;;;;;;18.00;99.90;;;;;;8385517;28;19936;-71
2022/07/29 06:41:46;;;;;;;;;;;18.00;99.90;;;;;;8385520;28;19924;-71
2022/07/29 06:45:47;;;;;;;;;;;18.00;99.90;;;;;;8390922;28;19924;-71
2022/07/29 06:49:49;;;;;;;;;;;18.00;99.90;;;;;;8390575;28;19924;-71
2022/07/29 06:53:51;;;;;;;;;;;18.10;99.90;;;;;;8391474;28;19932;-71
2022/07/29 06:58:00;;;;;;;;;;;18.20;99.90;;;;;;8392327;28;19934;-71
2022/07/29 07:02:02;;;;;;;;;;;18.20;99.90;;;;;;8391066;28;20375;-71
2022/07/29 07:06:03;;;;;;;;;;;18.30;99.90;;;;;;8389238;28;19924;-71
2022/07/29 07:10:05;;;;;;;;;;;18.40;99.90;;;;;;8424024;27;19932;-71
2022/07/29 07:14:07;;;;;;;;;;;18.60;99.90;;;;;;8391035;28;19932;-71
2022/07/29 07:18:09;;;;;;;;;;;18.80;99.90;;;;;;8390239;28;19936;-71
2022/07/29 07:22:10;;;;;;;;;;;18.90;99.90;;;;;;8389998;28;19924;-71
2022/07/29 07:26:12;;;;;;;;;;;19.00;99.90;;;;;;8388995;28;20284;-71
2022/07/29 07:30:14;;;;;;;;;;;19.10;99.90;;;;;;8394042;28;19935;-71
2022/07/29 07:34:15;;;;;;;;;;;19.20;99.90;;;;;;8392182;28;19935;-71
2022/07/29 07:38:17;;;;;;;;;;;19.20;99.90;;;;;;8422026;27;19924;-71
2022/07/29 07:42:19;;;;;;;;;;;19.20;99.90;;;;;;8390292;28;19924;-71
2022/07/29 07:46:21;;;;;;;;;;;19.20;99.90;;;;;;8390515;28;19928;-71
2022/07/29 08:05:26;;;;;;;;;;;19.30;99.90;;;;;;8392450;28;19970;-71
2022/07/29 08:09:29;;;;;;;;;;;19.30;99.90;;;;;;8389209;28;19931;-71
2022/07/29 08:13:31;;;;;;;;;;;19.40;99.90;;;;;;8390862;28;20321;-71
2022/07/29 08:17:33;;;;;;;;;;;19.50;99.90;;;;;;8389779;28;19924;-71
2022/07/29 08:21:36;;;;;;;;;;;19.60;99.90;;;;;;8388199;28;19978;-71
2022/07/29 08:25:41;;;;;;;;;;;19.60;99.90;;;;;;8388109;28;19952;-71
2022/07/29 08:29:42;;;;;;;;;;;19.60;99.90;;;;;;8388422;28;20383;-71
2022/07/29 08:33:44;;;;;;;;;;;19.60;99.90;;;;;;8390478;28;19936;-71
2022/07/29 08:37:46;;;;;;;;;;;19.60;99.90;;;;;;8388677;28;19928;-71
2022/07/29 08:41:48;;;;;;;;;;;19.60;99.90;;;;;;8388590;28;20301;-71
2022/07/29 08:45:57;;;;;;;;;;;19.60;99.90;;;;;;8390270;28;20473;-71
2022/07/29 08:49:59;;;;;;;;;;;19.60;99.90;;;;;;8387718;28;20015;-71
2022/07/29 08:54:01;;;;;;;;;;;19.60;99.90;;;;;;8420647;27;19924;-71
2022/07/29 08:58:04;;;;;;;;;;;19.70;99.90;;;;;;8388433;28;19928;-71
2022/07/29 09:02:07;;;;;;;;;;;19.90;99.90;;;;;;8388202;28;20295;-71
2022/07/29 09:06:09;;;;;;;;;;;20.00;99.90;;;;;;8386144;28;19924;-71
2022/07/29 09:10:10;;;;;;;;;;;20.10;99.90;;;;;;8388472;28;19936;-71
2022/07/29 09:14:13;;;;;;;;;;;20.20;99.90;;;;;;8387729;28;19925;-71
2022/07/29 09:18:32;;;;;;;;;;;20.30;99.90;;;;;;8387457;28;20250;-71
2022/07/29 09:22:34;;;;;;;;;;;20.40;99.90;;;;;;8386650;28;20276;-71
2022/07/29 09:26:42;;;;;;;;;;;20.50;99.90;;;;;;8388544;28;20398;-71
2022/07/29 09:30:53;;;;;;;;;;;20.60;99.90;;;;;;8387634;28;19925;-71
2022/07/29 09:35:15;;;;;;;;;;;20.70;99.90;;;;;;8383789;28;19932;-71
2022/07/29 09:39:26;;;;;;;;;;;20.80;99.90;;;;;;8387813;28;19932;-71
2022/07/29 09:43:28;;;;;;;;;;;20.90;99.90;;;;;;8386103;28;19931;-71
2022/07/29 09:47:44;;;;;;;;;;;21.00;99.90;;;;;;8384600;28;19924;-71
2022/07/29 09:51:46;;;;;;;;;;;21.20;99.90;;;;;;8386199;28;19974;-71
2022/07/29 09:55:51;;;;;;;;;;;21.30;99.90;;;;;;8385207;28;19925;-71
2022/07/29 10:00:00;;;;;;;;;;;21.40;99.90;;;;;;8386276;28;20330;-71
2022/07/29 10:04:02;;;;;;;;;;;21.40;99.90;;;;;;8387313;28;19939;-71
2022/07/29 10:08:04;;;;;;;;;;;21.50;99.90;;;;;;8419716;27;19951;-71
2022/07/29 10:12:06;;;;;;;;;;;21.70;99.90;;;;;;8386572;28;19936;-71
2022/07/29 10:16:08;;;;;;;;;;;21.70;99.90;;;;;;8385503;28;20299;-71
2022/07/29 10:20:10;;;;;;;;;;;21.80;99.90;;;;;;8391999;28;19975;-71
2022/07/29 10:24:16;;;;;;;;;;;21.90;99.90;;;;;;8393733;28;19932;-71
2022/07/29 10:28:18;;;;;;;;;;;22.00;99.90;;;;;;8394420;28;20360;-71
2022/07/29 10:37:46;;;;;;;;;;;22.20;99.90;;;;;;8394435;28;19993;-71
2022/07/29 10:42:07;;;;;;;;;;;22.40;99.90;;;;;;8391318;28;19928;-72
2022/07/29 10:46:10;;;;;;;;;;;22.50;99.90;;;;;;8392872;28;20441;-69
2022/07/29 10:50:12;;;;;;;;;;;22.50;99.90;;;;;;8391515;28;19928;-69
2022/07/29 10:54:18;;;;;;;;;;;22.60;99.90;;;;;;8393217;28;20240;-68
2022/07/29 10:58:21;;;;;;;;;;;22.50;99.90;;;;;;8391734;28;19928;-69
2022/07/29 11:02:39;;;;;;;;;;;22.50;99.90;;;;;;8406869;28;19928;-69
2022/07/29 11:07:02;;;;;;;;;;;22.60;99.90;;;;;;8395195;28;19947;-69
2022/07/29 11:11:19;;;;;;;;;;;22.60;99.90;;;;;;8393786;28;19929;-69
2022/07/29 11:15:23;;;;;;;;;;;22.70;99.90;;;;;;8392654;28;19966;-69
2022/07/29 11:19:25;;;;;;;;;;;22.80;99.90;;;;;;8389869;28;19924;-69
2022/07/29 11:23:47;;;;;;;;;;;22.90;99.90;;;;;;8389605;28;19963;-69
2022/07/29 11:27:48;;;;;;;;;;;23.00;99.90;;;;;;8388833;28;19925;-69
2022/07/29 11:31:54;;;;;;;;;;;23.10;99.90;;;;;;8390602;28;19925;-69
2022/07/29 11:36:10;;;;;;;;;;;23.20;99.90;;;;;;8386940;28;19924;-69
2022/07/29 11:40:12;;;;;;;;;;;23.30;99.90;;;;;;8391040;28;19925;-69
2022/07/29 11:44:15;;;;;;;;;;;23.40;99.90;;;;;;8389724;28;19928;-69
2022/07/29 11:48:18;;;;;;;;;;;23.50;99.90;;;;;;8392712;28;19928;-69
2022/07/29 11:52:45;;;;;;;;;;;23.60;99.90;;;;;;8389841;28;19924;-69
2022/07/29 11:56:49;;;;;;;;;;;23.70;99.90;;;;;;8391060;28;19962;-69
2022/07/29 12:00:51;;;;;;;;;;;23.80;99.90;;;;;;8387869;28;20292;-69
2022/07/29 12:04:57;;;;;;;;;;;23.80;99.90;;;;;;8388283;28;20322;-69
2022/07/29 12:08:58;;;;;;;;;;;23.80;99.90;;;;;;8388744;28;19940;-69
2022/07/29 12:13:00;;;;;;;;;;;23.80;99.90;;;;;;8389089;28;20039;-68
2022/07/29 12:17:01;;;;;;;;;;;23.80;99.90;;;;;;8389450;28;19981;-69
2022/07/29 12:21:03;;;;;;;;;;;23.90;99.90;;;;;;8389013;28;19924;-69
2022/07/29 12:25:09;;;;;;;;;;;23.90;99.90;;;;;;8387179;28;20368;-69
2022/07/29 12:29:30;;;;;;;;;;;23.90;99.90;;;;;;8389709;28;19971;-69
2022/07/29 12:33:34;;;;;;;;;;;24.00;99.90;;;;;;8388286;28;20380;-69
2022/07/29 12:37:37;;;;;;;;;;;24.00;99.90;;;;;;8387079;28;20023;-69
2022/07/29 12:41:41;;;;;;;;;;;24.00;99.90;;;;;;8388547;28;19928;-69
2022/07/29 12:45:53;;;;;;;;;;;24.00;99.90;;;;;;8386247;28;19925;-69
2022/07/29 12:50:08;;;;;;;;;;;24.10;99.90;;;;;;8387974;28;19924;-69
2022/07/29 12:54:11;;;;;;;;;;;24.20;99.90;;;;;;8387389;28;20268;-69
2022/07/29 12:58:13;;;;;;;;;;;24.20;99.90;;;;;;8388054;28;19931;-69
2022/07/29 13:02:24;;;;;;;;;;;24.20;99.90;;;;;;8386700;28;19936;-69
2022/07/29 13:06:31;;;;;;;;;;;24.10;99.90;;;;;;8385934;28;20320;-69
2022/07/29 13:10:36;;;;;;;;;;;24.10;99.90;;;;;;8389011;28;19956;-69
2022/07/29 13:14:40;;;;;;;;;;;24.10;99.90;;;;;;8387251;28;19928;-69
2022/07/29 13:18:42;;;;;;;;;;;24.10;99.90;;;;;;8385206;28;19928;-69
2022/07/29 13:22:47;;;;;;;;;;;24.10;99.90;;;;;;8387987;28;21710;-69
2022/07/29 13:26:48;;;;;;;;;;;24.20;99.90;;;;;;8387911;28;20372;-69
2022/07/29 13:30:50;;;;;;;;;;;24.30;99.90;;;;;;8388345;28;19931;-69
2022/07/29 13:34:52;;;;;;;;;;;24.50;99.90;;;;;;8385972;28;19925;-69
2022/07/29 13:38:54;;;;;;;;;;;24.50;99.90;;;;;;8385880;28;19924;-69
2022/07/29 13:42:55;;;;;;;;;;;24.60;99.90;;;;;;8385926;28;19951;-69
2022/07/29 13:46:58;;;;;;;;;;;24.70;99.90;;;;;;8386497;28;19932;-69
2022/07/29 13:51:00;;;;;;;;;;;24.80;99.90;;;;;;8391290;28;19954;-69
2022/07/29 13:55:02;;;;;;;;;;;24.80;99.90;;;;;;8384136;28;20372;-69
2022/07/29 13:59:04;;;;;;;;;;;24.80;99.90;;;;;;8388397;28;19924;-69
2022/07/29 14:08:10;;;;;;;;;;;24.90;99.90;;;;;;8351545;28;19959;-69
2022/07/29 14:12:11;;;;;;;;;;;25.00;99.90;;;;;;8386585;28;20264;-69
2022/07/29 14:16:13;;;;;;;;;;;25.00;99.90;;;;;;8387792;28;19925;-69
2022/07/29 14:20:15;;;;;;;;;;;25.00;99.90;;;;;;8386983;28;19947;-69
2022/07/29 14:24:17;;;;;;;;;;;25.10;99.90;;;;;;8385394;28;19933;-69
2022/07/29 14:28:23;;;;;;;;;;;25.20;99.90;;;;;;8387586;28;19928;-69
2022/07/29 14:32:25;;;;;;;;;;;25.20;99.90;;;;;;8387311;28;19935;-69
2022/07/29 14:36:27;;;;;;;;;;;25.40;99.90;;;;;;8385013;28;19924;-69
2022/07/29 14:40:28;;;;;;;;;;;25.50;99.90;;;;;;8386150;28;19932;-69
2022/07/29 14:44:33;;;;;;;;;;;25.60;99.90;;;;;;8416274;27;19925;-69
2022/07/29 14:48:35;;;;;;;;;;;25.70;99.90;;;;;;8386975;28;19927;-69
2022/07/29 14:52:37;;;;;;;;;;;25.70;99.90;;;;;;8383259;28;20240;-69
2022/07/29 14:56:38;;;;;;;;;;;25.70;99.90;;;;;;8384857;28;19924;-69
2022/07/29 15:00:47;;;;;;;;;;;25.70;99.90;;;;;;8386789;28;19921;-69
2022/07/29 15:04:49;;;;;;;;;;;25.60;99.90;;;;;;8389129;28;19974;-69
2022/07/29 15:08:50;;;;;;;;;;;25.50;99.90;;;;;;8391769;28;19927;-69
2022/07/29 15:12:52;;;;;;;;;;;25.50;99.90;;;;;;8390156;28;19920;-69
2022/07/29 15:16:54;;;;;;;;;;;25.50;99.90;;;;;;8390784;28;19947;-69
2022/07/29 15:20:56;;;;;;;;;;;25.50;99.90;;;;;;8391154;28;19921;-69
2022/07/29 15:24:57;;;;;;;;;;;25.70;99.90;;;;;;8389950;28;19947;-69
2022/07/29 15:28:59;;;;;;;;;;;25.80;99.90;;;;;;8392892;28;19924;-69
2022/07/29 15:33:02;;;;;;;;;;;25.90;99.90;;;;;;8389884;28;19928;-69
2022/07/29 15:37:04;;;;;;;;;;;26.00;99.90;;;;;;8390500;28;19924;-69
2022/07/29 15:41:06;;;;;;;;;;;26.10;99.90;;;;;;8391276;28;19920;-69
2022/07/29 15:45:08;;;;;;;;;;;26.30;99.90;;;;;;8388434;28;20339;-70
2022/07/29 15:49:10;;;;;;;;;;;26.30;99.90;;;;;;8392062;28;19921;-69
2022/07/29 15:53:12;;;;;;;;;;;26.40;99.90;;;;;;8388604;28;20329;-70
2022/07/29 15:57:13;;;;;;;;;;;26.50;99.90;;;;;;8390142;28;19921;-69
2022/07/29 16:01:15;;;;;;;;;;;26.80;99.90;;;;;;8391966;28;19920;-69
2022/07/29 16:05:17;;;;;;;;;;;27.10;99.90;;;;;;8389705;28;20023;-69
2022/07/29 16:09:19;;;;;;;;;;;27.60;99.90;;;;;;8390116;28;19931;-69
2022/07/29 16:13:20;;;;;;;;;;;28.00;99.90;;;;;;8387210;28;20375;-70
2022/07/29 16:17:22;;;;;;;;;;;28.30;99.90;;;;;;8389989;28;19971;-69
2022/07/29 16:21:24;;;;;;;;;;;28.70;99.90;;;;;;8390290;28;19920;-69
2022/07/29 16:25:25;;;;;;;;;;;29.00;99.90;;;;;;8391483;28;19932;-70
2022/07/29 16:29:49;;;;;;;;;;;29.20;99.90;;;;;;8390764;28;20371;-69
2022/07/29 16:33:51;;;;;;;;;;;29.40;99.90;;;;;;8390536;28;19924;-69
2022/07/29 16:37:54;;;;;;;;;;;29.50;99.90;;;;;;8388161;28;19920;-70
2022/07/29 16:41:55;;;;;;;;;;;29.50;99.90;;;;;;8388584;28;19943;-70
2022/07/29 16:46:00;;;;;;;;;;;29.60;99.90;;;;;;8386635;28;20360;-70
2022/07/29 16:50:02;;;;;;;;;;;29.60;99.90;;;;;;8388049;28;19928;-70
2022/07/29 16:54:04;;;;;;;;;;;29.60;99.90;;;;;;8388396;28;19924;-70
2022/07/29 16:58:06;;;;;;;;;;;29.70;99.90;;;;;;8390592;28;19940;-70
2022/07/29 17:02:07;;;;;;;;;;;29.60;99.90;;;;;;8389917;28;19920;-69
2022/07/29 17:06:09;;;;;;;;;;;29.40;99.90;;;;;;8420069;27;19930;-69
2022/07/29 17:10:11;;;;;;;;;;;29.20;99.90;;;;;;8388111;28;19940;-70
2022/07/29 17:14:12;;;;;;;;;;;28.80;99.90;;;;;;8385547;28;19920;-71
2022/07/29 17:18:14;;;;;;;;;;;28.20;99.90;;;;;;8385158;28;19927;-69
2022/07/29 17:22:16;;;;;;;;;;;27.70;99.90;;;;;;8385946;28;19920;-70
2022/07/29 17:26:20;;;;;;;;;;;27.40;99.90;;;;;;8386600;28;19974;-70
2022/07/29 17:30:21;;;;;;;;;;;27.20;99.90;;;;;;8385978;28;19927;-69
2022/07/29 17:34:23;;;;;;;;;;;27.10;99.90;;;;;;8386655;28;19928;-70
2022/07/29 17:38:25;;;;;;;;;;;26.90;99.90;;;;;;8386998;28;19930;-70
2022/07/29 17:42:26;;;;;;;;;;;26.80;99.90;;;;;;8419041;27;21397;-70
2022/07/29 17:46:28;;;;;;;;;;;26.70;99.90;;;;;;8385749;28;20000;-69
2022/07/29 17:50:29;;;;;;;;;;;26.60;99.90;;;;;;8422300;27;19924;-69
2022/07/29 17:54:31;;;;;;;;;;;26.40;99.90;;;;;;8386271;28;19924;-69
2022/07/29 17:58:33;;;;;;;;;;;26.20;99.80;;;;;;8389102;28;19928;-70
2022/07/29 18:02:36;;;;;;;;;;;26.10;99.70;;;;;;8384137;28;19924;-69
2022/07/29 18:06:38;;;;;;;;;;;26.00;99.60;;;;;;8387707;28;19921;-69
2022/07/29 18:15:50;;;;;;;;;;;25.80;99.50;;;;;;8383830;28;20052;-69
2022/07/29 18:19:51;;;;;;;;;;;25.70;99.40;;;;;;8386257;28;19927;-69
2022/07/29 18:23:53;;;;;;;;;;;25.70;99.40;;;;;;8388548;28;19981;-69
2022/07/29 18:32:58;;;;;;;;;;;25.60;99.30;;;;;;8384982;28;19935;-69
2022/07/29 18:37:19;;;;;;;;;;;25.40;99.20;;;;;;8386702;28;20006;-69
2022/07/29 18:51:49;;;;;;;;;;;25.30;99.30;;;;;;8389543;28;20537;-70
2022/07/29 18:55:51;;;;;;;;;;;25.10;99.20;;;;;;8391244;28;19924;-70
2022/07/29 18:59:54;;;;;;;;;;;25.10;99.40;;;;;;8391977;28;19928;-69
2022/07/29 19:03:55;;;;;;;;;;;25.00;99.40;;;;;;8390562;28;19920;-69
2022/07/29 19:07:57;;;;;;;;;;;25.00;99.30;;;;;;8391446;28;19935;-69
2022/07/29 19:11:59;;;;;;;;;;;25.00;99.30;;;;;;8391786;28;19920;-69
2022/07/29 19:16:04;;;;;;;;;;;24.90;99.20;;;;;;8389570;28;20283;-69
2022/07/29 19:20:06;;;;;;;;;;;24.80;99.20;;;;;;8390012;28;19927;-69
2022/07/29 19:24:08;;;;;;;;;;;24.70;99.10;;;;;;8391019;28;19928;-69
2022/07/29 19:28:15;;;;;;;;;;;24.70;99.10;;;;;;8392542;28;20383;-69
2022/07/29 19:42:23;;;;;;;;;;;24.30;98.90;;;;;;8391152;28;20026;-70
2022/07/29 19:46:27;;;;;;;;;;;24.20;98.90;;;;;;8422263;27;19920;-69
2022/07/29 19:50:29;;;;;;;;;;;24.10;98.90;;;;;;8387393;28;20678;-69
2022/07/29 19:54:31;;;;;;;;;;;24.00;98.90;;;;;;8389708;28;19931;-69
2022/07/29 19:58:34;;;;;;;;;;;24.00;99.00;;;;;;8388063;28;19921;-69
2022/07/29 20:08:10;;;;;;;;;;;23.80;99.00;;;;;;8390066;28;19966;-69
2022/07/29 20:12:14;;;;;;;;;;;23.70;99.00;;;;;;8324126;28;19921;-69
2022/07/29 20:16:15;;;;;;;;;;;23.60;99.00;;;;;;8323523;28;19947;-69
2022/07/29 20:20:17;;;;;;;;;;;23.50;99.10;;;;;;8357165;28;19943;-69
2022/07/29 20:24:19;;;;;;;;;;;23.50;99.20;;;;;;8325094;28;19925;-69
2022/07/29 20:28:21;;;;;;;;;;;23.40;99.20;;;;;;8326203;28;19928;-69
2022/07/29 20:32:23;;;;;;;;;;;23.40;99.20;;;;;;8324130;28;19932;-69
2022/07/29 20:36:24;;;;;;;;;;;23.30;99.20;;;;;;8322387;28;19928;-69
2022/07/29 20:40:26;;;;;;;;;;;23.20;99.30;;;;;;8327079;28;20198;-69
2022/07/29 20:44:28;;;;;;;;;;;23.00;99.40;;;;;;8321919;28;19928;-69
2022/07/29 20:48:29;;;;;;;;;;;22.90;99.40;;;;;;8322097;28;19925;-69
2022/07/29 21:07:41;;;;;;;;;;;22.50;99.50;;;;;;8362824;28;19982;-69
2022/07/29 21:11:43;;;;;;;;;;;22.50;99.60;;;;;;8422583;28;19943;-69
2022/07/29 21:15:48;;;;;;;;;;;22.40;99.70;;;;;;8427647;28;19973;-69
2022/07/29 21:19:52;;;;;;;;;;;22.20;99.60;;;;;;8427657;28;20394;-69
2022/07/29 21:23:53;;;;;;;;;;;22.10;99.70;;;;;;8428003;28;19919;-69
2022/07/29 21:32:15;;;;;;;;;;;21.90;99.80;;;;;;8428066;28;19935;-69
2022/07/29 21:36:28;;;;;;;;;;;21.90;99.90;;;;;;8417928;28;19948;-69
2022/07/29 21:40:50;;;;;;;;;;;21.80;99.90;;;;;;8422099;28;19967;-69
2022/07/29 21:44:52;;;;;;;;;;;21.70;99.90;;;;;;8425529;28;19965;-69
2022/07/29 21:48:54;;;;;;;;;;;21.70;99.90;;;;;;8427496;28;20186;-69
2022/07/29 21:52:55;;;;;;;;;;;21.60;99.90;;;;;;8427197;28;20338;-69
2022/07/29 21:56:57;;;;;;;;;;;21.60;99.90;;;;;;8427098;28;19927;-69
2022/07/29 22:00:59;;;;;;;;;;;21.60;99.90;;;;;;8427019;28;19924;-69
2022/07/29 22:05:01;;;;;;;;;;;21.60;99.90;;;;;;8427134;28;19958;-69
2022/07/29 22:09:02;;;;;;;;;;;21.50;99.90;;;;;;8425492;28;19919;-69
2022/07/29 22:13:04;;;;;;;;;;;21.50;99.90;;;;;;8421342;28;19920;-69
2022/07/29 22:17:05;;;;;;;;;;;21.40;99.90;;;;;;8424303;28;19920;-69
2022/07/29 22:21:07;;;;;;;;;;;21.40;99.90;;;;;;8426952;28;19927;-69
2022/07/29 22:25:09;;;;;;;;;;;21.30;99.90;;;;;;8426877;28;19920;-69
2022/07/29 22:29:11;;;;;;;;;;;21.30;99.90;;;;;;8426980;28;19939;-69
2022/07/29 22:33:13;;;;;;;;;;;21.20;99.90;;;;;;8427093;28;19927;-69
2022/07/29 22:37:18;;;;;;;;;;;21.20;99.90;;;;;;8410581;28;19920;-69
2022/07/29 22:41:19;;;;;;;;;;;21.10;99.90;;;;;;8424987;28;19920;-69
2022/07/29 22:45:21;;;;;;;;;;;21.00;99.90;;;;;;8425575;28;19920;-69
2022/07/29 22:49:23;;;;;;;;;;;21.00;99.90;;;;;;8425887;28;19920;-69
2022/07/29 22:53:24;;;;;;;;;;;20.90;99.90;;;;;;8426271;28;20386;-69
2022/07/29 22:57:26;;;;;;;;;;;20.80;99.90;;;;;;8426106;28;20481;-69
2022/07/29 23:01:28;;;;;;;;;;;20.70;99.90;;;;;;8425632;28;19920;-69
2022/07/29 23:05:38;;;;;;;;;;;20.60;99.90;;;;;;8426661;28;19920;-69
2022/07/29 23:09:39;;;;;;;;;;;20.60;99.90;;;;;;8426083;28;19946;-69
2022/07/29 23:18:51;;;;;;;;;;;20.40;99.90;;;;;;8425815;28;20466;-69
2022/07/29 23:22:53;;;;;;;;;;;20.30;99.90;;;;;;8425441;28;20367;-69
2022/07/29 23:26:54;;;;;;;;;;;20.20;99.90;;;;;;8429582;28;19920;-69
2022/07/29 23:30:56;;;;;;;;;;;20.20;99.90;;;;;;8431704;28;19943;-69
2022/07/29 23:34:58;;;;;;;;;;;20.10;99.90;;;;;;8431329;28;19919;-69
2022/07/29 23:43:57;;;;;;;;;;;20.00;99.90;;;;;;8425540;28;19915;-69
2022/07/29 23:47:59;;;;;;;;;;;20.00;99.90;;;;;;8430865;28;19931;-69
